sensor_id;sensor_type;location;lat;lon;timestamp;temperature;humidity
20459;DHT22;10388;52.314;7.938;2023-07-24T00:03:26;17.80;99.90
20459;DHT22;10388;52.314;7.938;2023-07-24T03:26:21;17.70;99.90
20459;DHT22;10388;52.314;7.938;2023-07-24T03:28:52;17.70;99.90
20459;DHT22;10388;52.314;7.938;2023-07-24T03:31:23;17.70;99.90
20459;DHT22;10388;52.314;7.938;2023-07-24T03:33:54;17.70;99.90
20459;DHT22;10388;52.314;7.938;2023-07-24T03:36:25;17.60;99.90
20459;DHT22;10388;52.314;7.938;2023-07-24T03:38:55;17.60;99.90
20459;DHT22;10388;52.314;7.938;2023-07-24T03:41:51;17.60;99.90
20459;DHT22;10388;52.314;7.938;2023-07-24T03:44:21;17.60;99.90
20459;DHT22;10388;52.314;7.938;2023-07-24T03:46:52;17.60;99.90
20459;DHT22;10388;52.314;7.938;2023-07-24T03:49:23;17.60;99.90
20459;DHT22;10388;52.314;7.938;2023-07-24T03:51:53;17.70;99.90
20459;DHT22;10388;52.314;7.938;2023-07-24T03:54:24;17.60;99.90
20459;DHT22;10388;52.314;7.938;2023-07-24T03:56:54;17.70;99.90
20459;DHT22;10388;52.314;7.938;2023-07-24T04:00:02;17.60;99.90
20459;DHT22;10388;52.314;7.938;2023-07-24T04:02:33;17.60;99.90
20459;DHT22;10388;52.314;7.938;2023-07-24T04:05:04;17.60;99.90
20459;DHT22;10388;52.314;7.938;2023-07-24T04:07:40;17.60;99.90
20459;DHT22;10388;52.314;7.938;2023-07-24T04:10:10;17.60;99.90
20459;DHT22;10388;52.314;7.938;2023-07-24T04:12:41;17.60;99.90
20459;DHT22;10388;52.314;7.938;2023-07-24T04:15:11;17.60;99.90
20459;DHT22;10388;52.314;7.938;2023-07-24T04:17:42;17.60;99.90
20459;DHT22;10388;52.314;7.938;2023-07-24T04:20:13;17.60;99.90
20459;DHT22;10388;52.314;7.938;2023-07-24T04:22:43;17.60;99.90
20459;DHT22;10388;52.314;7.938;2023-07-24T04:25:14;17.60;99.90
20459;DHT22;10388;52.314;7.938;2023-07-24T04:27:46;17.60;99.90
20459;DHT22;10388;52.314;7.938;2023-07-24T04:30:16;17.60;99.90
20459;DHT22;10388;52.314;7.938;2023-07-24T04:33:06;17.60;99.90
20459;DHT22;10388;52.314;7.938;2023-07-24T04:35:37;17.60;99.90
20459;DHT22;10388;52.314;7.938;2023-07-24T04:38:13;17.60;99.90
20459;DHT22;10388;52.314;7.938;2023-07-24T04:40:44;17.60;99.90
20459;DHT22;10388;52.314;7.938;2023-07-24T04:43:15;17.60;99.90
20459;DHT22;10388;52.314;7.938;2023-07-24T04:45:47;17.70;99.90
20459;DHT22;10388;52.314;7.938;2023-07-24T04:48:17;17.70;99.90
20459;DHT22;10388;52.314;7.938;2023-07-24T04:50:55;17.60;99.90
20459;DHT22;10388;52.314;7.938;2023-07-24T04:53:25;17.70;99.90
20459;DHT22;10388;52.314;7.938;2023-07-24T04:55:56;17.60;99.90
20459;DHT22;10388;52.314;7.938;2023-07-24T04:58:27;17.60;99.90
20459;DHT22;10388;52.314;7.938;2023-07-24T05:00:57;17.60;99.90
20459;DHT22;10388;52.314;7.938;2023-07-24T05:03:32;17.60;99.90
20459;DHT22;10388;52.314;7.938;2023-07-24T05:06:02;17.60;99.90
20459;DHT22;10388;52.314;7.938;2023-07-24T05:08:33;17.60;99.90
20459;DHT22;10388;52.314;7.938;2023-07-24T05:11:03;17.60;99.90
20459;DHT22;10388;52.314;7.938;2023-07-24T05:13:34;17.60;99.90
20459;DHT22;10388;52.314;7.938;2023-07-24T05:16:05;17.50;99.90
20459;DHT22;10388;52.314;7.938;2023-07-24T05:18:36;17.50;99.90
20459;DHT22;10388;52.314;7.938;2023-07-24T05:21:06;17.50;99.90
20459;DHT22;10388;52.314;7.938;2023-07-24T05:23:37;17.50;99.90
20459;DHT22;10388;52.314;7.938;2023-07-24T05:26:07;17.50;99.90
20459;DHT22;10388;52.314;7.938;2023-07-24T05:28:38;17.50;99.90
20459;DHT22;10388;52.314;7.938;2023-07-24T05:31:08;17.50;99.90
20459;DHT22;10388;52.314;7.938;2023-07-24T05:33:39;17.50;99.90
20459;DHT22;10388;52.314;7.938;2023-07-24T05:36:10;17.50;99.90
20459;DHT22;10388;52.314;7.938;2023-07-24T05:38:40;17.50;99.90
20459;DHT22;10388;52.314;7.938;2023-07-24T05:41:11;17.50;99.90
20459;DHT22;10388;52.314;7.938;2023-07-24T05:43:41;17.40;99.90
20459;DHT22;10388;52.314;7.938;2023-07-24T05:46:12;17.50;99.90
20459;DHT22;10388;52.314;7.938;2023-07-24T05:48:43;17.40;99.90
20459;DHT22;10388;52.314;7.938;2023-07-24T05:51:13;17.40;99.90
20459;DHT22;10388;52.314;7.938;2023-07-24T05:53:44;17.40;99.90
20459;DHT22;10388;52.314;7.938;2023-07-24T05:56:15;17.40;99.90
20459;DHT22;10388;52.314;7.938;2023-07-24T05:58:45;17.40;99.90
20459;DHT22;10388;52.314;7.938;2023-07-24T06:01:16;17.40;99.90
20459;DHT22;10388;52.314;7.938;2023-07-24T06:03:46;17.40;99.90
20459;DHT22;10388;52.314;7.938;2023-07-24T06:06:17;17.50;99.90
20459;DHT22;10388;52.314;7.938;2023-07-24T06:08:47;17.40;99.90
20459;DHT22;10388;52.314;7.938;2023-07-24T06:11:18;17.50;99.90
20459;DHT22;10388;52.314;7.938;2023-07-24T06:13:49;17.50;99.90
20459;DHT22;10388;52.314;7.938;2023-07-24T06:16:19;17.50;99.90
20459;DHT22;10388;52.314;7.938;2023-07-24T06:18:50;17.50;99.90
20459;DHT22;10388;52.314;7.938;2023-07-24T06:21:20;17.50;99.90
20459;DHT22;10388;52.314;7.938;2023-07-24T06:23:51;17.50;99.90
20459;DHT22;10388;52.314;7.938;2023-07-24T06:26:22;17.50;99.90
20459;DHT22;10388;52.314;7.938;2023-07-24T06:28:52;17.50;99.90
20459;DHT22;10388;52.314;7.938;2023-07-24T06:31:23;17.50;99.90
20459;DHT22;10388;52.314;7.938;2023-07-24T06:33:53;17.50;99.90
20459;DHT22;10388;52.314;7.938;2023-07-24T06:36:24;17.60;99.90
20459;DHT22;10388;52.314;7.938;2023-07-24T06:38:54;17.60;99.90
20459;DHT22;10388;52.314;7.938;2023-07-24T06:41:26;17.70;99.90
20459;DHT22;10388;52.314;7.938;2023-07-24T06:43:56;17.70;99.90
20459;DHT22;10388;52.314;7.938;2023-07-24T06:46:27;17.70;99.90
20459;DHT22;10388;52.314;7.938;2023-07-24T06:48:57;17.60;99.90
20459;DHT22;10388;52.314;7.938;2023-07-24T06:51:28;17.60;99.90
20459;DHT22;10388;52.314;7.938;2023-07-24T06:53:59;17.60;99.90
20459;DHT22;10388;52.314;7.938;2023-07-24T06:56:29;17.60;99.90
20459;DHT22;10388;52.314;7.938;2023-07-24T06:59:00;17.60;99.90
20459;DHT22;10388;52.314;7.938;2023-07-24T07:01:31;17.50;99.90
20459;DHT22;10388;52.314;7.938;2023-07-24T07:04:01;17.50;99.90
20459;DHT22;10388;52.314;7.938;2023-07-24T07:06:32;17.50;99.90
20459;DHT22;10388;52.314;7.938;2023-07-24T07:09:03;17.40;99.90
20459;DHT22;10388;52.314;7.938;2023-07-24T07:11:35;17.30;99.90
20459;DHT22;10388;52.314;7.938;2023-07-24T07:14:06;17.30;99.90
20459;DHT22;10388;52.314;7.938;2023-07-24T07:16:39;17.30;99.90
20459;DHT22;10388;52.314;7.938;2023-07-24T07:19:09;17.40;99.90
20459;DHT22;10388;52.314;7.938;2023-07-24T07:21:40;17.40;99.90
20459;DHT22;10388;52.314;7.938;2023-07-24T07:24:11;17.50;99.90
20459;DHT22;10388;52.314;7.938;2023-07-24T07:26:41;17.60;99.90
20459;DHT22;10388;52.314;7.938;2023-07-24T07:29:12;17.60;99.90
20459;DHT22;10388;52.314;7.938;2023-07-24T07:31:42;17.60;99.90
20459;DHT22;10388;52.314;7.938;2023-07-24T07:34:13;17.70;99.90
20459;DHT22;10388;52.314;7.938;2023-07-24T07:36:43;17.80;99.90
20459;DHT22;10388;52.314;7.938;2023-07-24T07:39:14;18.00;99.90
20459;DHT22;10388;52.314;7.938;2023-07-24T07:41:44;18.10;99.90
20459;DHT22;10388;52.314;7.938;2023-07-24T07:44:15;18.30;99.90
20459;DHT22;10388;52.314;7.938;2023-07-24T07:46:45;18.30;99.90
20459;DHT22;10388;52.314;7.938;2023-07-24T07:49:16;18.20;99.90
20459;DHT22;10388;52.314;7.938;2023-07-24T07:51:47;18.10;99.90
20459;DHT22;10388;52.314;7.938;2023-07-24T07:54:17;18.10;99.90
20459;DHT22;10388;52.314;7.938;2023-07-24T07:56:48;18.10;99.90
20459;DHT22;10388;52.314;7.938;2023-07-24T07:59:19;18.10;99.90
20459;DHT22;10388;52.314;7.938;2023-07-24T08:01:50;18.20;99.90
20459;DHT22;10388;52.314;7.938;2023-07-24T08:04:20;18.30;99.90
20459;DHT22;10388;52.314;7.938;2023-07-24T08:06:51;18.40;99.90
20459;DHT22;10388;52.314;7.938;2023-07-24T08:09:21;18.40;99.90
20459;DHT22;10388;52.314;7.938;2023-07-24T08:11:54;18.50;99.90
20459;DHT22;10388;52.314;7.938;2023-07-24T08:14:24;18.60;99.90
20459;DHT22;10388;52.314;7.938;2023-07-24T08:16:55;18.70;99.90
20459;DHT22;10388;52.314;7.938;2023-07-24T08:19:28;18.80;99.90
20459;DHT22;10388;52.314;7.938;2023-07-24T08:21:59;18.70;99.90
20459;DHT22;10388;52.314;7.938;2023-07-24T08:24:30;18.70;99.90
20459;DHT22;10388;52.314;7.938;2023-07-24T08:27:01;18.70;99.90
20459;DHT22;10388;52.314;7.938;2023-07-24T08:29:31;18.70;99.90
20459;DHT22;10388;52.314;7.938;2023-07-24T08:32:04;18.60;99.90
20459;DHT22;10388;52.314;7.938;2023-07-24T08:34:35;18.60;99.90
20459;DHT22;10388;52.314;7.938;2023-07-24T08:37:05;18.50;99.90
20459;DHT22;10388;52.314;7.938;2023-07-24T08:39:36;18.50;99.90
20459;DHT22;10388;52.314;7.938;2023-07-24T08:42:11;18.50;99.90
20459;DHT22;10388;52.314;7.938;2023-07-24T08:44:42;18.50;99.90
20459;DHT22;10388;52.314;7.938;2023-07-24T08:47:13;18.60;99.90
20459;DHT22;10388;52.314;7.938;2023-07-24T08:49:46;18.60;99.90
20459;DHT22;10388;52.314;7.938;2023-07-24T08:52:17;18.90;99.90
20459;DHT22;10388;52.314;7.938;2023-07-24T08:54:49;19.00;99.90
20459;DHT22;10388;52.314;7.938;2023-07-24T08:57:20;19.20;99.90
20459;DHT22;10388;52.314;7.938;2023-07-24T08:59:50;19.40;99.90
20459;DHT22;10388;52.314;7.938;2023-07-24T09:02:21;19.50;99.90
20459;DHT22;10388;52.314;7.938;2023-07-24T09:04:54;19.60;99.90
20459;DHT22;10388;52.314;7.938;2023-07-24T09:07:24;19.80;99.90
20459;DHT22;10388;52.314;7.938;2023-07-24T09:09:55;19.80;99.90
20459;DHT22;10388;52.314;7.938;2023-07-24T09:12:26;19.80;99.90
20459;DHT22;10388;52.314;7.938;2023-07-24T09:15:05;19.80;99.90
20459;DHT22;10388;52.314;7.938;2023-07-24T09:17:47;19.90;99.90
20459;DHT22;10388;52.314;7.938;2023-07-24T09:20:19;20.00;99.90
20459;DHT22;10388;52.314;7.938;2023-07-24T09:22:51;20.10;99.90
20459;DHT22;10388;52.314;7.938;2023-07-24T09:25:32;20.20;99.90
20459;DHT22;10388;52.314;7.938;2023-07-24T09:28:29;20.30;99.90
20459;DHT22;10388;52.314;7.938;2023-07-24T09:31:00;20.10;99.90
20459;DHT22;10388;52.314;7.938;2023-07-24T09:33:40;20.20;99.90
20459;DHT22;10388;52.314;7.938;2023-07-24T09:36:11;20.10;99.90
20459;DHT22;10388;52.314;7.938;2023-07-24T09:38:42;20.10;99.90
20459;DHT22;10388;52.314;7.938;2023-07-24T09:41:13;19.80;99.90
20459;DHT22;10388;52.314;7.938;2023-07-24T09:43:45;19.50;99.90
20459;DHT22;10388;52.314;7.938;2023-07-24T09:46:15;19.50;99.90
20459;DHT22;10388;52.314;7.938;2023-07-24T09:48:46;19.60;99.90
20459;DHT22;10388;52.314;7.938;2023-07-24T09:51:17;19.80;99.90
20459;DHT22;10388;52.314;7.938;2023-07-24T09:53:55;19.90;99.90
20459;DHT22;10388;52.314;7.938;2023-07-24T09:56:26;20.20;99.90
20459;DHT22;10388;52.314;7.938;2023-07-24T09:58:59;20.30;99.90
20459;DHT22;10388;52.314;7.938;2023-07-24T10:01:31;20.10;99.90
20459;DHT22;10388;52.314;7.938;2023-07-24T10:04:04;20.00;99.90
20459;DHT22;10388;52.314;7.938;2023-07-24T10:06:38;20.00;99.90
20459;DHT22;10388;52.314;7.938;2023-07-24T10:09:09;20.50;99.90
20459;DHT22;10388;52.314;7.938;2023-07-24T10:11:39;20.80;99.90
20459;DHT22;10388;52.314;7.938;2023-07-24T10:14:10;20.70;99.90
20459;DHT22;10388;52.314;7.938;2023-07-24T10:16:40;20.40;99.90
20459;DHT22;10388;52.314;7.938;2023-07-24T10:19:15;20.40;99.90
20459;DHT22;10388;52.314;7.938;2023-07-24T10:21:49;20.10;99.90
20459;DHT22;10388;52.314;7.938;2023-07-24T10:24:29;20.20;99.90
20459;DHT22;10388;52.314;7.938;2023-07-24T10:26:59;20.50;99.90
20459;DHT22;10388;52.314;7.938;2023-07-24T10:29:34;20.60;99.90
20459;DHT22;10388;52.314;7.938;2023-07-24T10:32:18;20.50;99.90
20459;DHT22;10388;52.314;7.938;2023-07-24T10:35:08;20.40;99.90
20459;DHT22;10388;52.314;7.938;2023-07-24T10:37:41;20.60;99.90
20459;DHT22;10388;52.314;7.938;2023-07-24T10:40:19;21.00;99.90
20459;DHT22;10388;52.314;7.938;2023-07-24T10:43:04;21.10;99.90
20459;DHT22;10388;52.314;7.938;2023-07-24T10:45:46;20.90;99.90
20459;DHT22;10388;52.314;7.938;2023-07-24T10:48:20;20.60;99.90
20459;DHT22;10388;52.314;7.938;2023-07-24T10:50:51;20.20;99.90
20459;DHT22;10388;52.314;7.938;2023-07-24T10:53:23;20.10;99.90
20459;DHT22;10388;52.314;7.938;2023-07-24T10:55:53;20.10;99.90
20459;DHT22;10388;52.314;7.938;2023-07-24T10:58:25;20.20;99.90
20459;DHT22;10388;52.314;7.938;2023-07-24T11:00:56;20.10;99.90
20459;DHT22;10388;52.314;7.938;2023-07-24T11:03:27;20.10;99.90
20459;DHT22;10388;52.314;7.938;2023-07-24T11:05:58;20.40;99.90
20459;DHT22;10388;52.314;7.938;2023-07-24T11:08:29;20.60;99.90
20459;DHT22;10388;52.314;7.938;2023-07-24T11:11:00;20.60;99.90
20459;DHT22;10388;52.314;7.938;2023-07-24T11:13:31;20.60;99.90
20459;DHT22;10388;52.314;7.938;2023-07-24T11:16:06;20.50;99.90
20459;DHT22;10388;52.314;7.938;2023-07-24T11:18:50;20.50;99.90
20459;DHT22;10388;52.314;7.938;2023-07-24T11:21:25;20.70;99.90
20459;DHT22;10388;52.314;7.938;2023-07-24T11:23:56;20.60;99.90
20459;DHT22;10388;52.314;7.938;2023-07-24T11:26:27;20.40;99.90
20459;DHT22;10388;52.314;7.938;2023-07-24T11:28:58;20.30;99.90
20459;DHT22;10388;52.314;7.938;2023-07-24T11:31:36;20.20;99.90
20459;DHT22;10388;52.314;7.938;2023-07-24T11:34:07;20.30;99.90
20459;DHT22;10388;52.314;7.938;2023-07-24T11:36:38;20.60;99.90
20459;DHT22;10388;52.314;7.938;2023-07-24T11:39:09;21.20;99.90
20459;DHT22;10388;52.314;7.938;2023-07-24T11:41:39;21.60;99.90
20459;DHT22;10388;52.314;7.938;2023-07-24T11:44:10;21.80;99.90
20459;DHT22;10388;52.314;7.938;2023-07-24T11:46:40;21.80;99.90
20459;DHT22;10388;52.314;7.938;2023-07-24T11:49:14;21.80;99.90
20459;DHT22;10388;52.314;7.938;2023-07-24T11:51:45;22.00;99.90
20459;DHT22;10388;52.314;7.938;2023-07-24T11:54:15;22.00;99.90
20459;DHT22;10388;52.314;7.938;2023-07-24T11:56:46;22.10;99.90
20459;DHT22;10388;52.314;7.938;2023-07-24T11:59:16;22.10;99.90
20459;DHT22;10388;52.314;7.938;2023-07-24T12:01:47;22.30;99.90
20459;DHT22;10388;52.314;7.938;2023-07-24T12:04:19;22.40;99.90
20459;DHT22;10388;52.314;7.938;2023-07-24T12:06:50;22.60;99.90
20459;DHT22;10388;52.314;7.938;2023-07-24T12:09:20;22.60;99.90
20459;DHT22;10388;52.314;7.938;2023-07-24T12:11:51;22.40;99.90
20459;DHT22;10388;52.314;7.938;2023-07-24T12:14:21;22.20;99.90
20459;DHT22;10388;52.314;7.938;2023-07-24T12:17:02;22.00;99.90
20459;DHT22;10388;52.314;7.938;2023-07-24T12:19:32;21.70;99.90
20459;DHT22;10388;52.314;7.938;2023-07-24T12:22:03;21.70;99.90
20459;DHT22;10388;52.314;7.938;2023-07-24T12:24:34;21.50;99.90
20459;DHT22;10388;52.314;7.938;2023-07-24T12:27:05;21.40;99.90
20459;DHT22;10388;52.314;7.938;2023-07-24T12:29:35;21.30;99.90
20459;DHT22;10388;52.314;7.938;2023-07-24T12:32:06;21.20;99.90
20459;DHT22;10388;52.314;7.938;2023-07-24T12:34:36;21.10;99.90
20459;DHT22;10388;52.314;7.938;2023-07-24T12:37:07;21.00;99.90
20459;DHT22;10388;52.314;7.938;2023-07-24T12:39:38;21.00;99.90
20459;DHT22;10388;52.314;7.938;2023-07-24T12:42:08;20.90;99.90
20459;DHT22;10388;52.314;7.938;2023-07-24T12:44:39;20.80;99.90
20459;DHT22;10388;52.314;7.938;2023-07-24T12:47:10;20.80;99.90
20459;DHT22;10388;52.314;7.938;2023-07-24T12:49:41;20.70;99.90
20459;DHT22;10388;52.314;7.938;2023-07-24T12:52:12;20.60;99.90
20459;DHT22;10388;52.314;7.938;2023-07-24T12:54:42;20.50;99.90
20459;DHT22;10388;52.314;7.938;2023-07-24T12:57:13;20.40;99.90
20459;DHT22;10388;52.314;7.938;2023-07-24T12:59:43;20.30;99.90
20459;DHT22;10388;52.314;7.938;2023-07-24T13:02:14;20.30;99.90
20459;DHT22;10388;52.314;7.938;2023-07-24T13:04:44;20.30;99.90
20459;DHT22;10388;52.314;7.938;2023-07-24T13:07:15;20.30;99.90
20459;DHT22;10388;52.314;7.938;2023-07-24T13:09:46;20.20;99.90
20459;DHT22;10388;52.314;7.938;2023-07-24T13:12:16;20.20;99.90
20459;DHT22;10388;52.314;7.938;2023-07-24T13:14:47;20.20;99.90
20459;DHT22;10388;52.314;7.938;2023-07-24T13:17:17;20.20;99.90
20459;DHT22;10388;52.314;7.938;2023-07-24T13:19:48;20.20;99.90
20459;DHT22;10388;52.314;7.938;2023-07-24T13:22:19;20.20;99.90
20459;DHT22;10388;52.314;7.938;2023-07-24T13:24:49;20.20;99.90
20459;DHT22;10388;52.314;7.938;2023-07-24T13:27:20;20.20;99.90
20459;DHT22;10388;52.314;7.938;2023-07-24T13:29:50;20.30;99.90
20459;DHT22;10388;52.314;7.938;2023-07-24T13:32:21;20.30;99.90
20459;DHT22;10388;52.314;7.938;2023-07-24T13:34:51;20.40;99.90
20459;DHT22;10388;52.314;7.938;2023-07-24T13:37:22;20.50;99.90
20459;DHT22;10388;52.314;7.938;2023-07-24T13:39:54;20.70;99.90
20459;DHT22;10388;52.314;7.938;2023-07-24T13:42:25;20.80;99.90
20459;DHT22;10388;52.314;7.938;2023-07-24T13:44:55;20.90;99.90
20459;DHT22;10388;52.314;7.938;2023-07-24T13:47:26;21.00;99.90
20459;DHT22;10388;52.314;7.938;2023-07-24T13:49:56;21.00;99.90
20459;DHT22;10388;52.314;7.938;2023-07-24T13:52:27;21.00;99.90
20459;DHT22;10388;52.314;7.938;2023-07-24T13:54:57;21.20;99.90
20459;DHT22;10388;52.314;7.938;2023-07-24T13:57:28;21.50;99.90
20459;DHT22;10388;52.314;7.938;2023-07-24T13:59:58;21.70;99.90
20459;DHT22;10388;52.314;7.938;2023-07-24T14:02:29;21.80;99.90
20459;DHT22;10388;52.314;7.938;2023-07-24T14:04:59;21.60;99.90
20459;DHT22;10388;52.314;7.938;2023-07-24T14:07:30;21.50;99.90
20459;DHT22;10388;52.314;7.938;2023-07-24T14:10:00;21.30;99.90
20459;DHT22;10388;52.314;7.938;2023-07-24T14:12:31;21.30;99.90
20459;DHT22;10388;52.314;7.938;2023-07-24T14:15:02;21.30;99.90
20459;DHT22;10388;52.314;7.938;2023-07-24T14:17:33;21.40;99.90
20459;DHT22;10388;52.314;7.938;2023-07-24T14:20:05;21.40;99.90
20459;DHT22;10388;52.314;7.938;2023-07-24T14:22:36;21.40;99.90
20459;DHT22;10388;52.314;7.938;2023-07-24T14:25:07;21.40;99.90
20459;DHT22;10388;52.314;7.938;2023-07-24T14:27:38;21.40;99.90
20459;DHT22;10388;52.314;7.938;2023-07-24T14:30:09;21.60;99.90
20459;DHT22;10388;52.314;7.938;2023-07-24T14:32:40;21.80;99.90
20459;DHT22;10388;52.314;7.938;2023-07-24T14:35:11;21.90;99.90
20459;DHT22;10388;52.314;7.938;2023-07-24T14:37:41;21.80;99.90
20459;DHT22;10388;52.314;7.938;2023-07-24T14:40:12;21.70;99.90
20459;DHT22;10388;52.314;7.938;2023-07-24T14:42:43;21.80;99.90
20459;DHT22;10388;52.314;7.938;2023-07-24T14:45:13;21.70;99.90
20459;DHT22;10388;52.314;7.938;2023-07-24T14:47:44;21.80;99.90
20459;DHT22;10388;52.314;7.938;2023-07-24T14:50:14;21.80;99.90
20459;DHT22;10388;52.314;7.938;2023-07-24T14:52:45;21.70;99.90
20459;DHT22;10388;52.314;7.938;2023-07-24T14:55:15;21.50;99.90
20459;DHT22;10388;52.314;7.938;2023-07-24T14:57:46;21.50;99.90
20459;DHT22;10388;52.314;7.938;2023-07-24T15:00:17;21.60;99.90
20459;DHT22;10388;52.314;7.938;2023-07-24T15:02:47;21.50;99.90
20459;DHT22;10388;52.314;7.938;2023-07-24T15:05:18;21.30;99.90
20459;DHT22;10388;52.314;7.938;2023-07-24T15:07:49;21.60;99.90
20459;DHT22;10388;52.314;7.938;2023-07-24T15:10:19;21.70;99.90
20459;DHT22;10388;52.314;7.938;2023-07-24T15:12:51;21.60;99.90
20459;DHT22;10388;52.314;7.938;2023-07-24T15:15:22;21.40;99.90
20459;DHT22;10388;52.314;7.938;2023-07-24T15:17:52;21.30;99.90
20459;DHT22;10388;52.314;7.938;2023-07-24T15:20:23;21.40;99.90
20459;DHT22;10388;52.314;7.938;2023-07-24T15:22:53;21.50;99.90
20459;DHT22;10388;52.314;7.938;2023-07-24T15:25:24;21.60;99.90
20459;DHT22;10388;52.314;7.938;2023-07-24T15:27:54;21.60;99.90
20459;DHT22;10388;52.314;7.938;2023-07-24T15:30:25;21.70;99.90
20459;DHT22;10388;52.314;7.938;2023-07-24T15:32:55;21.50;99.90
20459;DHT22;10388;52.314;7.938;2023-07-24T15:35:26;21.50;99.90
20459;DHT22;10388;52.314;7.938;2023-07-24T15:37:57;21.50;99.90
20459;DHT22;10388;52.314;7.938;2023-07-24T15:40:29;21.50;99.90
20459;DHT22;10388;52.314;7.938;2023-07-24T15:43:00;21.50;99.90
20459;DHT22;10388;52.314;7.938;2023-07-24T15:45:30;21.50;99.90
20459;DHT22;10388;52.314;7.938;2023-07-24T15:48:01;21.50;99.90
20459;DHT22;10388;52.314;7.938;2023-07-24T15:50:31;21.40;99.90
20459;DHT22;10388;52.314;7.938;2023-07-24T15:53:02;21.50;99.90
20459;DHT22;10388;52.314;7.938;2023-07-24T15:55:32;21.40;99.90
20459;DHT22;10388;52.314;7.938;2023-07-24T15:58:03;21.30;99.90
20459;DHT22;10388;52.314;7.938;2023-07-24T16:00:35;21.30;99.90
20459;DHT22;10388;52.314;7.938;2023-07-24T16:03:06;21.30;99.90
20459;DHT22;10388;52.314;7.938;2023-07-24T16:05:36;21.20;99.90
20459;DHT22;10388;52.314;7.938;2023-07-24T16:08:07;21.20;99.90
20459;DHT22;10388;52.314;7.938;2023-07-24T16:10:40;21.20;99.90
20459;DHT22;10388;52.314;7.938;2023-07-24T16:13:11;21.10;99.90
20459;DHT22;10388;52.314;7.938;2023-07-24T16:15:42;21.10;99.90
20459;DHT22;10388;52.314;7.938;2023-07-24T16:18:12;21.00;99.90
20459;DHT22;10388;52.314;7.938;2023-07-24T16:20:43;21.10;99.90
20459;DHT22;10388;52.314;7.938;2023-07-24T16:23:13;21.00;99.90
20459;DHT22;10388;52.314;7.938;2023-07-24T16:25:44;20.90;99.90
20459;DHT22;10388;52.314;7.938;2023-07-24T16:28:14;20.70;99.90
20459;DHT22;10388;52.314;7.938;2023-07-24T16:30:45;20.30;99.90
20459;DHT22;10388;52.314;7.938;2023-07-24T16:33:16;20.10;99.90
20459;DHT22;10388;52.314;7.938;2023-07-24T16:35:46;19.90;99.90
20459;DHT22;10388;52.314;7.938;2023-07-24T16:38:18;19.70;99.90
20459;DHT22;10388;52.314;7.938;2023-07-24T16:40:49;19.60;99.90
20459;DHT22;10388;52.314;7.938;2023-07-24T16:43:21;19.50;99.90
20459;DHT22;10388;52.314;7.938;2023-07-24T16:45:52;19.30;99.90
20459;DHT22;10388;52.314;7.938;2023-07-24T16:48:23;19.00;99.90
20459;DHT22;10388;52.314;7.938;2023-07-24T16:50:53;18.70;99.90
20459;DHT22;10388;52.314;7.938;2023-07-24T16:53:24;18.50;99.90
20459;DHT22;10388;52.314;7.938;2023-07-24T16:55:55;18.20;99.90
20459;DHT22;10388;52.314;7.938;2023-07-24T16:58:25;18.10;99.90
20459;DHT22;10388;52.314;7.938;2023-07-24T17:00:56;18.10;99.90
20459;DHT22;10388;52.314;7.938;2023-07-24T17:03:27;18.10;99.90
20459;DHT22;10388;52.314;7.938;2023-07-24T17:05:58;18.10;99.90
20459;DHT22;10388;52.314;7.938;2023-07-24T17:08:28;18.00;99.90
20459;DHT22;10388;52.314;7.938;2023-07-24T17:10:59;18.10;99.90
20459;DHT22;10388;52.314;7.938;2023-07-24T17:13:30;18.10;99.90
20459;DHT22;10388;52.314;7.938;2023-07-24T17:16:00;18.20;99.90
20459;DHT22;10388;52.314;7.938;2023-07-24T17:18:31;18.20;99.90
20459;DHT22;10388;52.314;7.938;2023-07-24T17:21:02;18.30;99.90
20459;DHT22;10388;52.314;7.938;2023-07-24T17:23:33;18.40;99.90
20459;DHT22;10388;52.314;7.938;2023-07-24T17:26:03;18.30;99.90
20459;DHT22;10388;52.314;7.938;2023-07-24T17:28:34;18.30;99.90
20459;DHT22;10388;52.314;7.938;2023-07-24T17:31:04;18.30;99.90
20459;DHT22;10388;52.314;7.938;2023-07-24T17:33:35;18.40;99.90
20459;DHT22;10388;52.314;7.938;2023-07-24T17:36:05;18.30;99.90
20459;DHT22;10388;52.314;7.938;2023-07-24T17:38:36;18.30;99.90
20459;DHT22;10388;52.314;7.938;2023-07-24T17:41:06;18.10;99.90
20459;DHT22;10388;52.314;7.938;2023-07-24T17:43:39;18.20;99.90
20459;DHT22;10388;52.314;7.938;2023-07-24T17:46:09;18.20;99.90
20459;DHT22;10388;52.314;7.938;2023-07-24T17:48:40;18.20;99.90
20459;DHT22;10388;52.314;7.938;2023-07-24T17:51:11;18.20;99.90
20459;DHT22;10388;52.314;7.938;2023-07-24T17:53:42;18.30;99.90
20459;DHT22;10388;52.314;7.938;2023-07-24T17:56:12;18.20;99.90
20459;DHT22;10388;52.314;7.938;2023-07-24T17:58:43;18.20;99.90
20459;DHT22;10388;52.314;7.938;2023-07-24T18:01:15;18.00;99.90
20459;DHT22;10388;52.314;7.938;2023-07-24T18:03:45;18.00;99.90
20459;DHT22;10388;52.314;7.938;2023-07-24T18:06:16;17.90;99.90
20459;DHT22;10388;52.314;7.938;2023-07-24T18:08:46;17.80;99.90
20459;DHT22;10388;52.314;7.938;2023-07-24T18:11:17;17.80;99.90
20459;DHT22;10388;52.314;7.938;2023-07-24T18:13:47;17.60;99.90
20459;DHT22;10388;52.314;7.938;2023-07-24T18:16:18;17.60;99.90
20459;DHT22;10388;52.314;7.938;2023-07-24T18:18:49;17.60;99.90
20459;DHT22;10388;52.314;7.938;2023-07-24T18:21:19;17.60;99.90
20459;DHT22;10388;52.314;7.938;2023-07-24T18:23:50;17.60;99.90
20459;DHT22;10388;52.314;7.938;2023-07-24T18:26:22;17.60;99.90
20459;DHT22;10388;52.314;7.938;2023-07-24T18:28:52;17.60;99.90
20459;DHT22;10388;52.314;7.938;2023-07-24T18:31:23;17.60;99.90
20459;DHT22;10388;52.314;7.938;2023-07-24T18:33:53;17.50;99.90
20459;DHT22;10388;52.314;7.938;2023-07-24T18:36:24;17.40;99.90
20459;DHT22;10388;52.314;7.938;2023-07-24T18:38:55;17.20;99.90
20459;DHT22;10388;52.314;7.938;2023-07-24T18:41:25;17.00;99.90
20459;DHT22;10388;52.314;7.938;2023-07-24T18:43:56;16.80;99.90
20459;DHT22;10388;52.314;7.938;2023-07-24T18:46:26;16.80;99.90
20459;DHT22;10388;52.314;7.938;2023-07-24T18:48:57;16.80;99.90
20459;DHT22;10388;52.314;7.938;2023-07-24T18:51:27;16.80;99.90
20459;DHT22;10388;52.314;7.938;2023-07-24T18:53:58;16.70;99.90
20459;DHT22;10388;52.314;7.938;2023-07-24T18:56:28;16.80;99.90
20459;DHT22;10388;52.314;7.938;2023-07-24T18:58:59;16.70;99.90
20459;DHT22;10388;52.314;7.938;2023-07-24T19:01:29;16.70;99.90
20459;DHT22;10388;52.314;7.938;2023-07-24T19:04:00;16.70;99.90
20459;DHT22;10388;52.314;7.938;2023-07-24T19:06:31;16.70;99.90
20459;DHT22;10388;52.314;7.938;2023-07-24T19:09:01;16.70;99.90
20459;DHT22;10388;52.314;7.938;2023-07-24T19:11:32;16.70;99.90
20459;DHT22;10388;52.314;7.938;2023-07-24T19:14:03;16.60;99.90
20459;DHT22;10388;52.314;7.938;2023-07-24T19:16:34;16.60;99.90
20459;DHT22;10388;52.314;7.938;2023-07-24T19:19:05;16.60;99.90